LEGE/GRO METAR and TAF weather

Enter ICAO airport designator
Station Type Date Time Source
LEGE METAR 2018/12/13 08:30 UTC NOAA

LEGE 130830Z 00000KT 9999 FEW013 08/08 Q1007


Station Type Date Time Source
LEGE Decoded METAR 2018/12/13 08:30 UTC NOAA

Gerona / Costa Brava, Spain (LEGE) 41-54N 002-46E 129M
Dec 13, 2018 - 03:30 AM EST / 2018.12.13 0830 UTC
Wind: Calm:0
Visibility: greater than 7 mile(s):0
Sky conditions: mostly clear
Temperature: 46 F (8 C)
Dew Point: 46 F (8 C)
Relative Humidity: 100%
Pressure (altimeter): 29.74 in. Hg (1007 hPa)
ob: LEGE 130830Z 00000KT 9999 FEW013 08/08 Q1007
cycle: 8

Station Type Date Time Source
LEGE TAF 2018/12/13 06:27 UTC NOAA

TAF LEGE 130500Z 1306/1406 VRB04KT 9999 BKN030 TX13/1313Z TN06/1306Z PROB40
TEMPO 1306/1309 2000 RA BKN005 PROB40
TEMPO 1312/1319 3000 RA
TEMPO 1320/1324 30015G25KT


Example: see airport list